createdAt,value
2022-08-19T00:00:38.938Z,20.85
2022-08-19T00:03:44.502Z,20.81
2022-08-19T00:06:49.995Z,20.74
2022-08-19T00:09:56.789Z,20.68
2022-08-19T00:13:03.448Z,20.64
2022-08-19T00:16:08.829Z,20.63
2022-08-19T00:19:14.804Z,20.76
2022-08-19T00:22:20.527Z,20.97
2022-08-19T00:25:30.159Z,21.10
2022-08-19T00:28:36.910Z,21.16
2022-08-19T00:31:42.928Z,21.22
2022-08-19T00:34:48.502Z,21.17
2022-08-19T00:37:54.017Z,21.06
2022-08-19T00:40:59.832Z,20.92
2022-08-19T00:44:05.836Z,20.78
2022-08-19T00:47:14.131Z,20.62
2022-08-19T00:50:31.319Z,20.52
2022-08-19T00:53:36.832Z,20.42
2022-08-19T00:56:42.259Z,20.22
2022-08-19T01:00:01.025Z,20.05
2022-08-19T01:03:07.856Z,19.87
2022-08-19T01:06:16.098Z,19.79
2022-08-19T01:09:26.439Z,19.74
2022-08-19T01:12:32.459Z,19.70
2022-08-19T01:15:37.709Z,19.68
2022-08-19T01:18:43.052Z,19.66
2022-08-19T01:21:48.698Z,19.65
2022-08-19T01:24:55.306Z,19.67
2022-08-19T01:28:09.929Z,19.66
2022-08-19T01:31:26.751Z,19.68
2022-08-19T01:34:35.138Z,19.71
2022-08-19T01:37:41.589Z,19.82
2022-08-19T01:40:47.006Z,19.90
2022-08-19T01:44:03.191Z,19.97
2022-08-19T01:47:18.132Z,20.04
2022-08-19T01:50:23.507Z,20.10
2022-08-19T01:53:30.548Z,20.19
2022-08-19T01:56:39.399Z,20.47
2022-08-19T01:59:44.682Z,20.62
2022-08-19T02:02:50.385Z,20.69
2022-08-19T02:05:55.877Z,20.69
2022-08-19T02:09:02.113Z,20.68
2022-08-19T02:12:14.385Z,20.64
2022-08-19T02:15:20.008Z,20.60
2022-08-19T02:18:28.011Z,20.59
2022-08-19T02:21:34.913Z,20.57
2022-08-19T02:24:40.405Z,20.58
2022-08-19T02:27:46.075Z,20.61
2022-08-19T02:30:51.525Z,20.62
2022-08-19T02:33:57.751Z,20.62
2022-08-19T02:37:04.041Z,20.64
2022-08-19T02:40:12.420Z,20.66
2022-08-19T02:43:19.461Z,20.78
2022-08-19T02:49:44.594Z,21.15
2022-08-19T02:52:49.681Z,21.47
2022-08-19T02:55:55.383Z,21.62
2022-08-19T02:59:01.827Z,21.66
2022-08-19T03:02:07.614Z,21.63
2022-08-19T03:05:14.397Z,21.52
2022-08-19T03:08:20.205Z,21.41
2022-08-19T03:11:27.299Z,21.25
2022-08-19T03:14:32.807Z,21.19
2022-08-19T03:17:38.556Z,21.33
2022-08-19T03:20:44.035Z,21.51
2022-08-19T03:23:49.405Z,21.55
2022-08-19T03:26:58.622Z,21.57
2022-08-19T03:30:05.313Z,21.49
2022-08-19T03:33:18.103Z,21.53
2022-08-19T03:36:25.583Z,21.55
2022-08-19T03:39:33.171Z,21.57
2022-08-19T03:42:48.580Z,21.59
2022-08-19T03:45:56.584Z,21.58
2022-08-19T03:49:09.461Z,21.63
2022-08-19T03:52:15.276Z,21.81
2022-08-19T03:55:22.497Z,22.62
2022-08-19T03:58:28.984Z,23.66
2022-08-19T04:01:35.117Z,24.80
2022-08-19T04:04:40.753Z,25.72
2022-08-19T04:07:45.943Z,25.24
2022-08-19T04:10:51.996Z,24.62
2022-08-19T04:13:58.064Z,24.13
2022-08-19T04:17:05.779Z,23.65
2022-08-19T04:20:14.181Z,23.28
2022-08-19T04:23:20.205Z,22.85
2022-08-19T04:26:26.720Z,22.48
2022-08-19T04:29:32.068Z,22.30
2022-08-19T04:32:37.323Z,22.16
2022-08-19T04:35:43.117Z,22.04
2022-08-19T04:38:49.293Z,21.96
2022-08-19T04:42:12.542Z,21.93
2022-08-19T04:45:17.856Z,21.77
2022-08-19T04:48:27.919Z,21.69
2022-08-19T04:51:33.539Z,21.65
2022-08-19T04:54:40.061Z,21.73
2022-08-19T04:57:52.968Z,21.75
2022-08-19T05:01:01.050Z,21.77
2022-08-19T05:04:14.077Z,21.75
2022-08-19T05:07:19.963Z,21.67
2022-08-19T05:10:26.870Z,21.63
2022-08-19T05:13:35.932Z,21.61
2022-08-19T05:16:44.065Z,21.73
2022-08-19T05:20:07.348Z,21.82
2022-08-19T05:23:20.656Z,21.84
2022-08-19T05:26:28.175Z,21.89
2022-08-19T05:29:36.370Z,21.91
2022-08-19T05:32:42.313Z,21.84
2022-08-19T05:35:49.417Z,21.81
2022-08-19T05:38:55.356Z,21.90
2022-08-19T05:42:01.086Z,21.92
2022-08-19T05:45:06.588Z,21.90
2022-08-19T05:48:12.454Z,21.98
2022-08-19T05:51:18.118Z,22.09
2022-08-19T05:54:24.101Z,22.36
2022-08-19T05:57:30.091Z,22.50
2022-08-19T06:00:38.450Z,22.54
2022-08-19T06:03:44.304Z,22.67
2022-08-19T06:06:57.438Z,22.79
2022-08-19T06:10:03.340Z,22.91
2022-08-19T06:13:09.817Z,23.08
2022-08-19T06:16:23.302Z,23.09
2022-08-19T06:19:30.874Z,23.33
2022-08-19T06:22:37.255Z,23.59
2022-08-19T06:25:42.964Z,23.86
2022-08-19T06:28:51.402Z,24.09
2022-08-19T06:31:57.804Z,24.21
2022-08-19T06:35:04.393Z,24.40
2022-08-19T06:38:10.442Z,24.44
2022-08-19T06:41:16.184Z,24.51
2022-08-19T06:44:25.270Z,24.51
2022-08-19T06:47:31.976Z,24.53
2022-08-19T06:50:39.454Z,24.59
2022-08-19T06:53:48.051Z,24.74
2022-08-19T06:56:54.375Z,24.82
2022-08-19T07:00:00.908Z,24.82
2022-08-19T07:03:08.761Z,24.88
2022-08-19T07:06:44.344Z,24.94
2022-08-19T07:09:58.429Z,25.05
2022-08-19T07:13:06.981Z,25.12
2022-08-19T07:16:12.313Z,25.11
2022-08-19T07:19:19.257Z,25.28
2022-08-19T07:22:24.948Z,25.34
2022-08-19T07:25:33.333Z,25.39
2022-08-19T07:28:40.226Z,25.56
2022-08-19T07:31:58.401Z,25.75
2022-08-19T07:38:31.536Z,26.27
2022-08-19T07:41:38.049Z,26.46
2022-08-19T07:44:50.003Z,26.61
2022-08-19T07:47:56.328Z,26.79
2022-08-19T07:51:02.857Z,27.00
2022-08-19T07:54:09.015Z,27.20
2022-08-19T07:57:14.741Z,27.32
2022-08-19T08:00:23.197Z,27.33
2022-08-19T08:03:44.179Z,27.35
2022-08-19T08:07:07.640Z,27.38
2022-08-19T08:10:20.561Z,27.42
2022-08-19T08:13:27.456Z,27.57
2022-08-19T08:16:33.257Z,27.63
2022-08-19T08:19:42.092Z,27.72
2022-08-19T08:23:05.843Z,27.79
2022-08-19T08:26:12.127Z,27.89
2022-08-19T08:29:18.340Z,28.07
2022-08-19T08:32:25.219Z,28.20
2022-08-19T08:35:30.881Z,28.35
2022-08-19T08:38:40.849Z,28.55
2022-08-19T08:41:47.867Z,28.71
2022-08-19T08:48:03.838Z,28.79
2022-08-19T08:51:31.860Z,28.82
2022-08-19T08:54:48.811Z,28.89
2022-08-19T08:58:00.440Z,28.94
2022-08-19T09:01:06.160Z,29.01
2022-08-19T09:04:11.737Z,29.04
2022-08-19T09:07:18.427Z,29.17
2022-08-19T09:10:44.311Z,29.20
2022-08-19T09:13:50.908Z,29.29
2022-08-19T09:16:56.621Z,29.32
2022-08-19T09:20:05.880Z,29.34
2022-08-19T09:23:14.804Z,29.37
2022-08-19T09:26:21.030Z,29.45
2022-08-19T09:29:27.743Z,29.54
2022-08-19T09:32:33.243Z,29.59
2022-08-19T09:35:49.914Z,29.57
2022-08-19T09:38:59.765Z,29.59
2022-08-19T09:42:30.032Z,29.60
2022-08-19T09:45:36.253Z,29.65
2022-08-19T09:48:41.852Z,29.74
2022-08-19T09:51:51.266Z,29.82
2022-08-19T09:54:56.678Z,29.84
2022-08-19T09:58:26.400Z,29.77
2022-08-19T10:01:32.333Z,29.84
2022-08-19T10:04:55.656Z,29.93
2022-08-19T10:08:01.864Z,29.97
2022-08-19T10:11:28.034Z,30.12
2022-08-19T10:14:36.211Z,30.20
2022-08-19T10:17:41.762Z,30.24
2022-08-19T10:21:00.637Z,30.23
2022-08-19T10:24:06.343Z,30.23
2022-08-19T10:27:17.031Z,30.27
2022-08-19T10:30:22.310Z,30.30
2022-08-19T10:33:39.363Z,30.37
2022-08-19T10:37:00.848Z,30.52
2022-08-19T10:40:12.955Z,30.61
2022-08-19T10:43:19.233Z,30.73
2022-08-19T10:46:25.595Z,30.73
2022-08-19T10:49:31.205Z,30.88
2022-08-19T10:52:38.918Z,31.34
2022-08-19T10:56:02.855Z,32.09
2022-08-19T10:59:08.445Z,32.54
2022-08-19T11:02:14.220Z,32.48
2022-08-19T11:05:19.750Z,32.51
2022-08-19T11:08:27.708Z,32.44
2022-08-19T11:11:34.018Z,32.44
2022-08-19T11:14:44.860Z,32.46
2022-08-19T11:17:50.264Z,32.63
2022-08-19T11:20:56.060Z,32.51
2022-08-19T11:24:01.752Z,32.50
2022-08-19T11:27:15.377Z,32.40
2022-08-19T11:30:21.008Z,32.42
2022-08-19T11:33:27.648Z,32.35
2022-08-19T11:36:43.532Z,32.43
2022-08-19T11:39:51.873Z,32.68
2022-08-19T11:42:59.814Z,32.82
2022-08-19T11:46:08.038Z,32.87
2022-08-19T11:49:14.187Z,32.90
2022-08-19T11:52:19.936Z,32.75
2022-08-19T11:55:25.343Z,32.66
2022-08-19T11:58:31.486Z,32.74
2022-08-19T12:01:36.820Z,32.86
2022-08-19T12:04:42.270Z,33.11
2022-08-19T12:07:55.415Z,32.90
2022-08-19T12:11:02.539Z,32.80
2022-08-19T12:14:08.124Z,32.91
2022-08-19T12:17:20.283Z,33.00
2022-08-19T12:20:25.784Z,32.95
2022-08-19T12:23:31.707Z,32.99
2022-08-19T12:26:52.628Z,33.04
2022-08-19T12:33:32.666Z,32.91
2022-08-19T12:36:38.907Z,33.07
2022-08-19T12:39:44.745Z,33.14
2022-08-19T12:42:52.071Z,33.17
2022-08-19T12:45:57.483Z,32.89
2022-08-19T12:49:27.391Z,33.21
2022-08-19T12:52:37.922Z,33.10
2022-08-19T12:55:43.799Z,33.01
2022-08-19T12:58:52.977Z,32.97
2022-08-19T13:01:59.056Z,32.89
2022-08-19T13:05:11.537Z,32.78
2022-08-19T13:08:18.048Z,32.83
2022-08-19T13:11:25.449Z,32.87
2022-08-19T13:14:32.530Z,32.91
2022-08-19T13:17:39.920Z,32.96
2022-08-19T13:20:52.460Z,32.91
2022-08-19T13:23:58.350Z,32.93
2022-08-19T13:27:03.721Z,32.96
2022-08-19T13:33:51.263Z,33.15
2022-08-19T13:36:56.710Z,33.25
2022-08-19T13:40:02.711Z,33.34
2022-08-19T13:43:17.734Z,33.15
2022-08-19T13:46:31.660Z,33.18
2022-08-19T13:49:37.499Z,33.26
2022-08-19T13:52:42.984Z,33.28
2022-08-19T13:55:49.677Z,33.14
2022-08-19T13:58:55.623Z,32.89
2022-08-19T14:02:06.522Z,32.69
2022-08-19T14:05:12.777Z,32.57
2022-08-19T14:08:20.841Z,32.43
2022-08-19T14:11:26.135Z,32.35
2022-08-19T14:14:32.898Z,32.19
2022-08-19T14:17:38.577Z,32.11
2022-08-19T14:20:45.051Z,31.98
2022-08-19T14:23:50.857Z,31.83
2022-08-19T14:26:56.508Z,31.76
2022-08-19T14:30:03.496Z,31.72
2022-08-19T14:33:09.519Z,31.60
2022-08-19T14:36:15.082Z,31.50
2022-08-19T14:39:27.167Z,31.41
2022-08-19T14:42:32.870Z,31.33
2022-08-19T14:45:38.771Z,31.30
2022-08-19T14:48:46.727Z,31.26
2022-08-19T14:51:57.600Z,31.18
2022-08-19T14:55:03.099Z,31.20
2022-08-19T14:58:28.546Z,31.19
2022-08-19T15:01:35.895Z,31.21
2022-08-19T15:04:41.399Z,31.21
2022-08-19T15:07:47.382Z,31.21
2022-08-19T15:10:52.996Z,31.20
2022-08-19T15:13:58.139Z,31.13
2022-08-19T15:17:04.063Z,31.05
2022-08-19T15:20:09.501Z,31.00
2022-08-19T15:23:15.320Z,30.94
2022-08-19T15:26:20.994Z,30.88
2022-08-19T15:29:28.242Z,30.73
2022-08-19T15:32:33.699Z,30.63
2022-08-19T15:35:41.081Z,30.59
2022-08-19T15:38:46.989Z,30.50
2022-08-19T15:41:54.359Z,30.40
2022-08-19T15:45:02.030Z,30.37
2022-08-19T15:48:07.968Z,30.30
2022-08-19T15:51:13.655Z,30.28
2022-08-19T15:54:21.603Z,30.24
2022-08-19T15:57:45.067Z,30.20
2022-08-19T16:01:12.780Z,30.15
2022-08-19T16:04:36.641Z,30.07
2022-08-19T16:07:42.472Z,30.00
2022-08-19T16:10:48.518Z,29.93
2022-08-19T16:13:57.981Z,29.86
2022-08-19T16:17:05.096Z,29.78
2022-08-19T16:20:10.535Z,29.70
2022-08-19T16:23:16.502Z,29.64
2022-08-19T16:26:21.745Z,29.55
2022-08-19T16:29:34.783Z,29.54
2022-08-19T16:32:44.846Z,29.54
2022-08-19T16:36:00.105Z,29.51
2022-08-19T16:39:20.180Z,29.47
2022-08-19T16:42:26.243Z,29.47
2022-08-19T16:45:31.904Z,29.37
2022-08-19T16:48:42.914Z,28.86
2022-08-19T16:51:50.521Z,28.29
2022-08-19T16:54:59.442Z,27.77
2022-08-19T16:58:05.080Z,27.35
2022-08-19T17:01:11.341Z,27.15
2022-08-19T17:04:16.903Z,26.93
2022-08-19T17:07:22.337Z,26.83
2022-08-19T17:10:32.336Z,26.70
2022-08-19T17:13:38.574Z,26.48
2022-08-19T17:16:44.592Z,26.27
2022-08-19T17:19:50.161Z,26.16
2022-08-19T17:23:14.871Z,25.99
2022-08-19T17:26:20.328Z,25.86
2022-08-19T17:29:28.300Z,25.74
2022-08-19T17:32:35.249Z,25.61
2022-08-19T17:35:43.701Z,25.42
2022-08-19T17:38:49.896Z,25.31
2022-08-19T17:41:57.146Z,25.21
2022-08-19T17:45:08.635Z,25.17
2022-08-19T17:48:14.284Z,25.17
2022-08-19T17:51:22.008Z,25.11
2022-08-19T17:54:33.192Z,24.97
2022-08-19T17:57:46.558Z,24.97
2022-08-19T18:00:54.495Z,25.00
2022-08-19T18:03:59.961Z,24.99
2022-08-19T18:07:06.504Z,25.01
2022-08-19T18:10:12.057Z,24.99
2022-08-19T18:13:18.114Z,25.02
2022-08-19T18:16:23.608Z,25.02
2022-08-19T18:19:31.528Z,25.02
2022-08-19T18:22:48.162Z,24.89
2022-08-19T18:25:53.804Z,24.88
2022-08-19T18:28:59.422Z,24.84
2022-08-19T18:32:05.081Z,24.88
2022-08-19T18:35:11.310Z,24.90
2022-08-19T18:38:34.448Z,24.94
2022-08-19T18:41:57.585Z,24.95
2022-08-19T18:45:21.895Z,24.90
2022-08-19T18:48:45.056Z,24.76
2022-08-19T18:51:51.517Z,24.59
2022-08-19T18:54:57.025Z,24.51
2022-08-19T18:58:02.842Z,24.57
2022-08-19T19:01:11.182Z,24.43
2022-08-19T19:04:23.549Z,24.23
2022-08-19T19:07:35.658Z,24.10
2022-08-19T19:10:42.344Z,24.01
2022-08-19T19:13:49.365Z,23.89
2022-08-19T19:16:55.350Z,23.80
2022-08-19T19:20:06.865Z,23.71
2022-08-19T19:23:12.325Z,23.59
2022-08-19T19:26:17.839Z,23.53
2022-08-19T19:29:26.154Z,23.45
2022-08-19T19:32:39.254Z,23.39
2022-08-19T19:35:47.160Z,23.36
2022-08-19T19:38:53.832Z,23.31
2022-08-19T19:42:03.350Z,23.30
2022-08-19T19:45:09.175Z,23.31
2022-08-19T19:48:16.281Z,23.30
2022-08-19T19:51:22.417Z,23.40
2022-08-19T19:54:28.695Z,23.48
2022-08-19T19:57:35.291Z,23.51
2022-08-19T20:00:40.534Z,23.42
2022-08-19T20:03:48.884Z,23.37
2022-08-19T20:06:54.480Z,23.22
2022-08-19T20:10:00.293Z,23.10
2022-08-19T20:13:05.911Z,23.07
2022-08-19T20:16:17.998Z,23.06
2022-08-19T20:19:23.453Z,23.00
2022-08-19T20:22:33.950Z,22.94
2022-08-19T20:25:39.350Z,22.84
2022-08-19T20:28:50.623Z,22.75
2022-08-19T20:32:04.290Z,22.71
2022-08-19T20:35:11.065Z,22.68
2022-08-19T20:38:16.874Z,22.66
2022-08-19T20:41:22.888Z,22.66
2022-08-19T20:44:28.468Z,22.55
2022-08-19T20:47:37.887Z,22.33
2022-08-19T20:50:43.335Z,22.16
2022-08-19T20:53:49.235Z,22.03
2022-08-19T20:56:54.437Z,22.10
2022-08-19T20:59:59.980Z,22.13
2022-08-19T21:03:05.593Z,22.25
2022-08-19T21:06:10.940Z,22.15
2022-08-19T21:09:25.351Z,21.94
2022-08-19T21:12:33.371Z,21.79
2022-08-19T21:15:40.859Z,21.60
2022-08-19T21:18:46.192Z,21.52
2022-08-19T21:21:51.585Z,21.41
2022-08-19T21:24:57.198Z,21.33
2022-08-19T21:28:02.659Z,21.27
2022-08-19T21:31:10.483Z,21.21
2022-08-19T21:34:16.696Z,21.18
2022-08-19T21:37:25.345Z,21.14
2022-08-19T21:40:45.860Z,21.12
2022-08-19T21:43:52.022Z,21.14
2022-08-19T21:46:57.723Z,21.15
2022-08-19T21:50:03.714Z,21.19
2022-08-19T21:53:11.297Z,21.19
2022-08-19T21:56:19.302Z,21.20
2022-08-19T21:59:24.607Z,21.27
2022-08-19T22:02:29.889Z,21.25
2022-08-19T22:05:44.741Z,21.26
2022-08-19T22:08:50.528Z,21.30
2022-08-19T22:11:55.932Z,21.45
2022-08-19T22:15:01.886Z,21.43
2022-08-19T22:18:07.067Z,21.28
2022-08-19T22:21:14.561Z,21.16
2022-08-19T22:24:20.111Z,21.08
2022-08-19T22:27:25.668Z,21.06
2022-08-19T22:30:33.344Z,21.10
2022-08-19T22:33:43.166Z,21.13
2022-08-19T22:37:06.761Z,21.16
2022-08-19T22:40:12.648Z,21.21
2022-08-19T22:43:22.402Z,21.27
2022-08-19T22:46:45.418Z,21.33
2022-08-19T22:49:51.946Z,21.38
2022-08-19T22:53:02.915Z,21.34
2022-08-19T22:56:10.856Z,21.29
2022-08-19T22:59:19.961Z,21.25
2022-08-19T23:02:25.515Z,21.24
2022-08-19T23:05:31.181Z,21.24
2022-08-19T23:08:37.549Z,21.26
2022-08-19T23:11:43.147Z,21.33
2022-08-19T23:14:48.903Z,21.32
2022-08-19T23:17:58.076Z,21.28
2022-08-19T23:21:09.713Z,21.30
2022-08-19T23:24:15.193Z,21.33
2022-08-19T23:27:39.323Z,21.34
2022-08-19T23:30:44.615Z,21.38
2022-08-19T23:33:53.751Z,21.33
2022-08-19T23:37:02.038Z,21.26
2022-08-19T23:40:07.723Z,21.27
2022-08-19T23:43:17.410Z,21.26
2022-08-19T23:46:29.939Z,21.19
2022-08-19T23:49:37.383Z,21.21
2022-08-19T23:52:43.647Z,21.26
2022-08-19T23:55:49.249Z,21.32
2022-08-19T23:58:54.960Z,21.32
